createdAt,value
2019-05-29T00:01:12.128Z,99306.27
2019-05-29T00:05:10.157Z,99323.03
2019-05-29T00:09:12.373Z,99323.03
2019-05-29T00:13:14.534Z,99321.92
2019-05-29T00:17:16.331Z,99321.92
2019-05-29T00:21:18.681Z,99341.35
2019-05-29T00:25:20.483Z,99341.35
2019-05-29T00:29:22.231Z,99345.52
2019-05-29T00:33:24.077Z,99353.94
2019-05-29T00:37:26.187Z,99359.33
2019-05-29T00:41:28.230Z,99370.81
2019-05-29T00:45:30.129Z,99355.66
2019-05-29T00:49:32.338Z,99355.66
2019-05-29T00:53:34.682Z,99370.47
2019-05-29T00:57:37.147Z,99370.47
2019-05-29T01:01:38.898Z,99378.88
2019-05-29T01:05:40.991Z,99380.02
2019-05-29T01:09:42.814Z,99382.94
2019-05-29T01:13:44.594Z,99394.30
2019-05-29T01:17:46.318Z,99402.86
2019-05-29T01:21:48.042Z,99396.48
2019-05-29T01:25:49.778Z,99398.27
2019-05-29T01:29:51.536Z,99398.27
2019-05-29T01:33:56.373Z,99398.94
2019-05-29T01:37:58.414Z,99408.13
2019-05-29T01:42:00.798Z,99418.61
2019-05-29T01:46:02.607Z,99418.61
2019-05-29T01:50:05.250Z,99429.78
2019-05-29T01:54:07.210Z,99428.48
2019-05-29T01:58:09.410Z,99441.73
2019-05-29T02:02:11.159Z,99441.73
2019-05-29T02:06:13.314Z,99442.38
2019-05-29T02:10:16.000Z,99446.34
2019-05-29T02:14:18.477Z,99453.13
2019-05-29T02:18:20.810Z,99452.78
2019-05-29T02:22:23.091Z,99457.78
2019-05-29T02:26:25.103Z,99458.11
2019-05-29T02:30:30.359Z,99468.94
2019-05-29T02:34:30.592Z,99466.42
2019-05-29T02:38:32.362Z,99478.79
2019-05-29T02:42:34.614Z,99478.79
2019-05-29T02:46:36.572Z,99478.50
2019-05-29T02:50:38.506Z,99482.67
2019-05-29T02:54:40.255Z,99483.18
2019-05-29T02:58:42.022Z,99484.63
2019-05-29T03:02:43.782Z,99498.19
2019-05-29T03:06:46.119Z,99496.24
2019-05-29T03:10:47.851Z,99503.18
2019-05-29T03:14:50.011Z,99510.16
2019-05-29T03:18:51.733Z,99516.56
2019-05-29T03:22:53.461Z,99514.99
2019-05-29T03:26:55.220Z,99520.19
2019-05-29T03:30:57.481Z,99516.56
2019-05-29T03:34:59.397Z,99523.33
2019-05-29T03:39:01.484Z,99533.23
2019-05-29T03:43:03.688Z,99542.12
2019-05-29T03:47:05.499Z,99546.39
2019-05-29T03:51:07.249Z,99536.45
2019-05-29T03:55:09.389Z,99545.16
2019-05-29T03:59:11.372Z,99547.91
2019-05-29T04:03:13.491Z,99550.72
2019-05-29T04:07:15.261Z,99558.03
2019-05-29T04:11:16.979Z,99566.17
2019-05-29T04:15:19.002Z,99562.62
2019-05-29T04:19:22.489Z,99567.17
2019-05-29T04:23:27.902Z,99575.31
2019-05-29T04:27:32.058Z,99579.09
2019-05-29T04:31:34.471Z,99588.09
2019-05-29T04:35:36.973Z,99592.57
2019-05-29T04:39:39.421Z,99592.80
2019-05-29T04:43:41.243Z,99590.37
2019-05-29T04:47:43.334Z,99598.81
2019-05-29T04:51:45.442Z,99598.81
2019-05-29T04:55:47.272Z,99616.16
2019-05-29T04:59:49.148Z,99620.38
2019-05-29T05:03:51.468Z,99629.53
2019-05-29T05:07:53.253Z,99637.56
2019-05-29T05:11:55.052Z,99648.51
2019-05-29T05:15:59.297Z,99649.91
2019-05-29T05:20:01.124Z,99654.53
2019-05-29T05:24:03.353Z,99662.64
2019-05-29T05:28:05.080Z,99668.95
2019-05-29T05:32:06.804Z,99674.83
2019-05-29T05:36:08.898Z,99666.22
2019-05-29T05:40:10.694Z,99669.27
2019-05-29T05:44:12.814Z,99678.95
2019-05-29T05:48:14.867Z,99678.95
2019-05-29T05:52:16.897Z,99689.25
2019-05-29T05:56:19.344Z,99698.93
2019-05-29T06:00:31.969Z,99698.93
2019-05-29T06:04:33.899Z,99700.02
2019-05-29T06:09:03.969Z,99703.74
2019-05-29T06:13:05.517Z,99711.05
2019-05-29T06:17:07.998Z,99711.95
2019-05-29T06:21:10.199Z,99710.34
2019-05-29T06:25:12.457Z,99720.87
2019-05-29T06:29:14.232Z,99719.89
2019-05-29T06:33:16.452Z,99723.73
2019-05-29T06:37:18.487Z,99723.95
2019-05-29T06:41:20.953Z,99739.27
2019-05-29T06:45:29.924Z,99739.44
2019-05-29T06:49:31.805Z,99744.11
2019-05-29T06:53:33.757Z,99743.55
2019-05-29T06:57:36.193Z,99753.84
2019-05-29T07:01:39.292Z,99757.98
2019-05-29T07:05:46.613Z,99756.56
2019-05-29T07:09:45.616Z,99759.09
2019-05-29T07:13:50.110Z,99761.40
2019-05-29T07:17:51.243Z,99753.39
2019-05-29T07:21:53.353Z,99763.23
2019-05-29T07:25:55.429Z,99762.58
2019-05-29T07:29:57.530Z,99763.32
2019-05-29T07:33:59.645Z,99773.39
2019-05-29T07:38:02.165Z,99767.16
2019-05-29T07:42:05.472Z,99776.52
2019-05-29T07:46:07.714Z,99780.67
2019-05-29T07:50:10.110Z,99784.52
2019-05-29T07:54:12.502Z,99782.78
2019-05-29T07:58:14.342Z,99790.40
2019-05-29T08:02:16.577Z,99784.14
2019-05-29T08:06:18.748Z,99788.95
2019-05-29T08:10:21.216Z,99782.55
2019-05-29T08:14:23.034Z,99783.84
2019-05-29T08:18:24.825Z,99792.47
2019-05-29T08:22:34.142Z,99784.47
2019-05-29T08:26:30.280Z,99795.69
2019-05-29T08:30:32.526Z,99789.29
2019-05-29T08:34:34.309Z,99787.44
2019-05-29T08:38:37.867Z,99799.56
2019-05-29T08:42:40.959Z,99791.59
2019-05-29T08:46:57.649Z,99793.42
2019-05-29T08:50:47.792Z,99798.77
2019-05-29T08:54:50.585Z,99806.66
2019-05-29T08:58:52.668Z,99806.45
2019-05-29T09:02:54.613Z,99804.23
2019-05-29T09:06:57.177Z,99808.05
2019-05-29T09:10:59.447Z,99802.66
2019-05-29T09:15:01.238Z,99802.92
2019-05-29T09:19:03.481Z,99809.20
2019-05-29T09:23:05.283Z,99803.23
2019-05-29T09:27:07.216Z,99807.09
2019-05-29T09:31:09.374Z,99810.00
2019-05-29T09:35:11.369Z,99794.33
2019-05-29T09:39:16.185Z,99797.98
2019-05-29T09:43:19.783Z,99804.05
2019-05-29T09:47:22.316Z,99805.56
2019-05-29T09:51:25.173Z,99807.24
2019-05-29T09:55:27.756Z,99802.23
2019-05-29T09:59:29.988Z,99803.69
2019-05-29T10:03:31.775Z,99816.08
2019-05-29T10:07:34.395Z,99813.83
2019-05-29T10:11:36.256Z,99825.23
2019-05-29T10:15:38.084Z,99819.52
2019-05-29T10:19:40.406Z,99813.81
2019-05-29T10:23:42.554Z,99820.26
2019-05-29T10:27:44.586Z,99823.05
2019-05-29T10:31:47.899Z,99827.61
2019-05-29T10:35:53.838Z,99829.97
2019-05-29T10:39:54.818Z,99824.21
2019-05-29T10:43:56.780Z,99824.67
2019-05-29T10:47:58.982Z,99821.97
2019-05-29T10:52:14.402Z,99820.19
2019-05-29T10:56:05.366Z,99817.20
2019-05-29T11:00:07.694Z,99815.41
2019-05-29T11:04:09.841Z,99810.86
2019-05-29T11:08:12.025Z,99805.43
2019-05-29T11:12:14.059Z,99806.12
2019-05-29T11:16:16.482Z,99801.64
2019-05-29T11:20:20.246Z,99807.75
2019-05-29T11:24:22.072Z,99809.02
2019-05-29T11:28:23.873Z,99799.54
2019-05-29T11:32:25.969Z,99798.94
2019-05-29T11:36:28.070Z,99791.25
2019-05-29T11:40:30.345Z,99792.80
2019-05-29T11:44:32.629Z,99791.44
2019-05-29T11:48:34.598Z,99799.52
2019-05-29T11:52:43.086Z,99799.66
2019-05-29T11:56:40.666Z,99801.36
2019-05-29T12:00:43.139Z,99798.41
2019-05-29T12:04:45.324Z,99799.94
2019-05-29T12:08:47.169Z,99801.98
2019-05-29T12:12:49.320Z,99798.73
2019-05-29T12:16:51.751Z,99790.97
2019-05-29T12:20:53.977Z,99793.41
2019-05-29T12:24:56.547Z,99789.11
2019-05-29T12:29:04.768Z,99780.15
2019-05-29T12:33:03.282Z,99785.46
2019-05-29T12:37:06.145Z,99784.88
2019-05-29T12:41:09.064Z,99777.30
2019-05-29T12:45:11.786Z,99791.50
2019-05-29T12:49:13.704Z,99787.34
2019-05-29T12:53:29.763Z,99778.20
2019-05-29T12:57:23.520Z,99784.05
2019-05-29T13:01:25.604Z,99776.93
2019-05-29T13:05:27.828Z,99782.58
2019-05-29T13:09:29.860Z,99782.83
2019-05-29T13:13:31.644Z,99777.43
2019-05-29T13:17:33.591Z,99783.60
2019-05-29T13:21:35.460Z,99778.59
2019-05-29T13:25:37.260Z,99775.84
2019-05-29T13:29:39.586Z,99772.39
2019-05-29T13:33:42.070Z,99773.61
2019-05-29T13:37:44.138Z,99772.95
2019-05-29T13:41:46.094Z,99771.78
2019-05-29T13:45:47.833Z,99770.02
2019-05-29T13:49:50.197Z,99763.94
2019-05-29T13:54:02.435Z,99768.70
2019-05-29T13:57:57.604Z,99761.47
2019-05-29T14:02:00.288Z,99759.20
2019-05-29T14:06:03.706Z,99757.34
2019-05-29T14:10:07.750Z,99750.11
2019-05-29T14:14:13.002Z,99759.13
2019-05-29T14:18:14.740Z,99761.70
2019-05-29T14:22:16.576Z,99759.59
2019-05-29T14:26:19.046Z,99761.61
2019-05-29T14:30:21.781Z,99760.09
2019-05-29T14:34:23.599Z,99762.80
2019-05-29T14:38:25.372Z,99763.73
2019-05-29T14:42:27.694Z,99767.84
2019-05-29T14:46:29.605Z,99756.58
2019-05-29T14:50:31.757Z,99758.27
2019-05-29T14:54:41.603Z,99757.65
2019-05-29T14:58:37.517Z,99762.64
2019-05-29T15:02:39.622Z,99754.34
2019-05-29T15:06:41.726Z,99750.86
2019-05-29T15:10:43.885Z,99761.37
2019-05-29T15:14:45.612Z,99751.03
2019-05-29T15:18:47.715Z,99753.59
2019-05-29T15:22:49.909Z,99764.98
2019-05-29T15:26:51.657Z,99766.52
2019-05-29T15:30:53.482Z,99760.06
2019-05-29T15:34:55.615Z,99760.86
2019-05-29T15:38:57.471Z,99764.28
2019-05-29T15:42:59.847Z,99764.16
2019-05-29T15:47:02.129Z,99764.39
2019-05-29T15:51:04.729Z,99760.52
2019-05-29T15:55:23.529Z,99759.56
2019-05-29T15:59:12.597Z,99759.31
2019-05-29T16:03:15.727Z,99757.38
2019-05-29T16:07:18.243Z,99757.10
2019-05-29T16:11:20.165Z,99755.69
2019-05-29T16:15:22.229Z,99757.36
2019-05-29T16:19:24.314Z,99748.09
2019-05-29T16:23:35.132Z,99751.59
2019-05-29T16:27:31.097Z,99748.52
2019-05-29T16:31:33.433Z,99744.63
2019-05-29T16:35:37.530Z,99749.91
2019-05-29T16:39:39.177Z,99753.82
2019-05-29T16:43:41.429Z,99754.09
2019-05-29T16:47:43.295Z,99753.94
2019-05-29T16:51:45.428Z,99761.77
2019-05-29T16:55:53.726Z,99761.02
2019-05-29T16:59:51.097Z,99757.12
2019-05-29T17:03:53.329Z,99761.77
2019-05-29T17:07:55.169Z,99763.09
2019-05-29T17:11:57.736Z,99759.18
2019-05-29T17:15:59.958Z,99763.61
2019-05-29T17:20:02.120Z,99759.22
2019-05-29T17:24:04.380Z,99758.11
2019-05-29T17:28:06.840Z,99762.59
2019-05-29T17:32:08.638Z,99770.72
2019-05-29T17:36:10.411Z,99765.39
2019-05-29T17:40:12.725Z,99760.02
2019-05-29T17:44:15.809Z,99757.92
2019-05-29T17:48:17.755Z,99763.56
2019-05-29T17:52:20.087Z,99761.12
2019-05-29T17:56:33.643Z,99761.19
2019-05-29T18:00:26.690Z,99771.28
2019-05-29T18:04:28.642Z,99767.23
2019-05-29T18:08:31.104Z,99772.05
2019-05-29T18:12:33.221Z,99771.71
2019-05-29T18:16:36.842Z,99772.41
2019-05-29T18:20:38.810Z,99775.23
2019-05-29T18:24:40.821Z,99775.43
2019-05-29T18:28:43.705Z,99775.16
2019-05-29T18:32:46.229Z,99776.41
2019-05-29T18:36:48.005Z,99775.34
2019-05-29T18:40:50.194Z,99772.70
2019-05-29T18:44:52.230Z,99767.90
2019-05-29T18:48:54.181Z,99767.06
2019-05-29T18:52:56.871Z,99771.75
2019-05-29T18:57:14.366Z,99770.00
2019-05-29T19:01:03.847Z,99767.84
2019-05-29T19:05:06.791Z,99770.85
2019-05-29T19:09:08.761Z,99772.70
2019-05-29T19:13:10.840Z,99773.24
2019-05-29T19:17:12.747Z,99772.61
2019-05-29T19:21:14.819Z,99781.42
2019-05-29T19:25:16.621Z,99783.70
2019-05-29T19:29:18.673Z,99781.59
2019-05-29T19:33:20.807Z,99787.83
2019-05-29T19:37:23.745Z,99792.89
2019-05-29T19:41:25.806Z,99802.52
2019-05-29T19:45:28.575Z,99805.86
2019-05-29T19:49:30.935Z,99814.53
2019-05-29T19:53:33.495Z,99814.53
2019-05-29T19:57:52.460Z,99817.27
2019-05-29T20:01:40.572Z,99821.29
2019-05-29T20:05:42.844Z,99825.84
2019-05-29T20:09:45.052Z,99835.97
2019-05-29T20:13:47.096Z,99837.83
2019-05-29T20:17:49.274Z,99831.42
2019-05-29T20:21:51.509Z,99842.47
2019-05-29T20:25:53.618Z,99835.09
2019-05-29T20:29:55.626Z,99844.02
2019-05-29T20:33:57.554Z,99836.36
2019-05-29T20:37:59.672Z,99843.80
2019-05-29T20:42:02.248Z,99841.56
2019-05-29T20:46:04.057Z,99850.64
2019-05-29T20:50:06.509Z,99846.76
2019-05-29T20:54:11.928Z,99842.67
2019-05-29T20:58:24.207Z,99852.50
2019-05-29T21:02:18.550Z,99844.21
2019-05-29T21:06:20.539Z,99850.01
2019-05-29T21:10:22.442Z,99845.05
2019-05-29T21:14:24.496Z,99849.05
2019-05-29T21:18:26.792Z,99852.47
2019-05-29T21:22:28.588Z,99852.87
2019-05-29T21:26:30.545Z,99853.50
2019-05-29T21:30:32.830Z,99848.72
2019-05-29T21:34:35.716Z,99848.16
2019-05-29T21:38:38.068Z,99850.97
2019-05-29T21:42:40.583Z,99850.99
2019-05-29T21:46:43.059Z,99845.66
2019-05-29T21:50:45.475Z,99850.80
2019-05-29T21:54:48.184Z,99847.06
2019-05-29T21:59:03.134Z,99850.44
2019-05-29T22:02:53.974Z,99846.87
2019-05-29T22:06:55.812Z,99857.80
2019-05-29T22:10:58.153Z,99856.80
2019-05-29T22:15:01.494Z,99848.66
2019-05-29T22:19:04.319Z,99858.00
2019-05-29T22:23:07.856Z,99852.45
2019-05-29T22:27:10.913Z,99853.25
2019-05-29T22:31:13.042Z,99853.83
2019-05-29T22:35:15.701Z,99856.80
2019-05-29T22:39:18.718Z,99849.27
2019-05-29T22:43:20.938Z,99857.61
2019-05-29T22:47:23.935Z,99849.48
2019-05-29T22:54:59.977Z,99846.88
2019-05-29T22:59:02.324Z,99853.16
2019-05-29T23:03:04.371Z,99844.61
2019-05-29T23:07:06.126Z,99849.75
2019-05-29T23:11:08.375Z,99845.77
2019-05-29T23:15:10.125Z,99841.94
2019-05-29T23:19:12.603Z,99837.38
2019-05-29T23:23:15.158Z,99836.16
2019-05-29T23:27:17.307Z,99844.84
2019-05-29T23:31:19.590Z,99846.23
2019-05-29T23:35:21.418Z,99846.78
2019-05-29T23:39:23.164Z,99841.39
2019-05-29T23:43:24.888Z,99840.58
2019-05-29T23:47:26.769Z,99847.45
2019-05-29T23:51:28.829Z,99845.89
2019-05-29T23:55:30.625Z,99849.61
2019-05-29T23:59:32.685Z,99847.25
